Time;durP1;ratioP1;P1;durP2;ratioP2;P2;SDS_P1;SDS_P2;PMS_P1;PMS_P2;Temp;Humidity;BMP_temperature;BMP_pressure;BME280_temperature;BME280_humidity;BME280_pressure;Samples;Min_cycle;Max_cycle;Signal;HPM_P1;HPM_P2
2022/01/03 00:01:09;;;;;;;57.63;26.87;;;6.30;97.30;;;6.15;69.48;95364.44;4985575;28;20855;-56
2022/01/03 00:03:38;;;;;;;43.83;25.37;;;6.30;97.20;;;6.16;69.24;95362.66;4990176;28;20454;-57
2022/01/03 00:06:06;;;;;;;49.20;25.67;;;6.20;97.10;;;6.15;69.79;95356.59;4988947;28;20494;-58
2022/01/03 00:08:33;;;;;;;42.40;24.57;;;6.20;97.00;;;6.14;69.62;95354.09;4991302;28;20455;-60
2022/01/03 00:11:00;;;;;;;43.40;25.70;;;6.30;97.30;;;6.15;69.70;95345.31;4988370;28;20527;-56
2022/01/03 00:13:27;;;;;;;43.40;25.03;;;6.20;97.10;;;6.14;69.46;95335.81;4988803;28;20831;-57
2022/01/03 00:15:56;;;;;;;42.90;22.40;;;6.20;97.20;;;6.14;69.47;95341.03;4991040;28;20490;-56
2022/01/03 00:18:24;;;;;;;45.00;24.03;;;6.20;97.10;;;6.12;69.40;95325.47;4989382;28;20478;-59
2022/01/03 00:20:58;;;;;;;51.47;24.93;;;6.20;97.20;;;6.08;70.22;95324.81;4986722;28;20573;-56
2022/01/03 00:23:30;;;;;;;48.47;24.33;;;6.20;97.40;;;6.08;70.13;95324.00;4992649;28;20480;-56
2022/01/03 00:26:00;;;;;;;53.30;26.10;;;6.20;97.40;;;6.07;70.25;95322.31;4988274;28;21069;-59
2022/01/03 00:28:32;;;;;;;44.63;25.33;;;6.20;97.50;;;6.07;70.77;95325.78;4990447;28;20849;-56
2022/01/03 00:31:00;;;;;;;44.13;24.10;;;6.20;97.70;;;6.10;70.32;95329.94;4987926;28;20578;-59
2022/01/03 00:33:27;;;;;;;46.43;24.67;;;6.20;97.50;;;6.10;70.13;95322.09;4989938;28;20454;-60
2022/01/03 00:35:59;;;;;;;38.77;22.70;;;6.20;98.00;;;6.10;70.42;95328.19;4988763;28;20971;-59
2022/01/03 00:38:26;;;;;;;56.67;26.20;;;6.20;97.70;;;6.14;70.18;95343.66;4991098;28;20467;-56
2022/01/03 00:40:54;;;;;;;44.83;24.60;;;6.20;97.60;;;6.14;69.91;95331.41;4991422;28;20910;-56
2022/01/03 00:43:21;;;;;;;63.50;32.27;;;6.20;97.70;;;6.15;69.80;95330.50;4989366;28;21014;-59
2022/01/03 00:45:51;;;;;;;54.57;29.03;;;6.20;97.40;;;6.15;69.60;95340.06;4988533;28;20501;-60
2022/01/03 00:48:18;;;;;;;52.47;27.70;;;6.20;97.40;;;6.15;69.64;95348.78;4988536;28;20462;-60
2022/01/03 00:50:46;;;;;;;40.30;23.27;;;6.20;97.40;;;6.14;69.57;95338.44;4989477;28;20478;-59
2022/01/03 00:53:15;;;;;;;53.17;23.37;;;6.20;97.40;;;6.14;70.10;95326.19;4986878;28;20465;-57
2022/01/03 00:55:56;;;;;;;38.63;21.67;;;6.20;97.40;;;6.13;69.72;95331.53;4988870;28;21059;-59
2022/01/03 00:58:23;;;;;;;43.13;22.17;;;6.20;97.30;;;6.13;69.84;95314.06;4990667;28;20446;-56
2022/01/03 01:00:52;;;;;;;35.50;20.77;;;6.20;97.40;;;6.12;69.89;95315.03;4987914;28;20510;-57
2022/01/03 01:03:22;;;;;;;45.60;23.70;;;6.20;97.40;;;6.10;69.63;95304.69;4989658;28;20465;-56
2022/01/03 01:05:50;;;;;;;38.97;21.87;;;6.20;97.40;;;6.09;69.81;95300.38;4992535;28;20908;-56
2022/01/03 01:08:20;;;;;;;38.87;21.00;;;6.20;97.40;;;6.08;69.88;95308.31;4992873;28;20465;-59
2022/01/03 01:10:50;;;;;;;34.57;21.43;;;6.20;97.50;;;6.08;70.04;95295.25;4988887;28;20470;-60
2022/01/03 01:13:17;;;;;;;33.63;20.60;;;6.20;97.50;;;6.08;69.65;95283.03;4990828;28;20530;-60
2022/01/03 01:15:44;;;;;;;41.67;21.10;;;6.20;97.40;;;6.08;70.44;95293.47;4987980;28;20486;-59
2022/01/03 01:18:12;;;;;;;34.07;21.50;;;6.20;97.70;;;6.08;69.80;95279.59;4990721;28;20457;-58
2022/01/03 01:20:40;;;;;;;35.13;19.70;;;6.20;97.50;;;6.08;70.16;95288.25;4983871;28;20479;-59
2022/01/03 01:23:08;;;;;;;34.43;19.40;;;6.20;97.50;;;6.10;70.06;95291.63;4993721;28;20459;-57
2022/01/03 01:28:21;;;;;;;44.67;21.17;;;6.20;97.50;;;6.10;69.85;95289.00;4990482;28;20537;-61
2022/01/03 01:30:49;;;;;;;42.47;22.70;;;6.20;97.60;;;6.09;69.83;95279.50;4988163;28;20557;-62
2022/01/03 01:33:17;;;;;;;42.40;24.40;;;6.20;97.50;;;6.08;69.91;95275.19;4987958;28;20461;-59
2022/01/03 01:35:47;;;;;;;40.63;21.53;;;6.20;97.50;;;6.06;69.41;95274.47;4987263;28;20521;-56
2022/01/03 01:38:17;;;;;;;38.80;23.17;;;6.10;97.30;;;6.06;70.02;95279.69;4986485;28;20517;-60
2022/01/03 01:40:47;;;;;;;40.40;21.30;;;6.10;97.40;;;6.06;70.01;95286.69;4989452;28;20486;-59
2022/01/03 01:43:15;;;;;;;37.63;21.90;;;6.10;97.40;;;6.06;69.45;95278.88;4988610;28;20446;-60
2022/01/03 01:45:43;;;;;;;38.60;21.10;;;6.10;97.40;;;6.06;69.66;95271.03;4988964;28;20495;-60
2022/01/03 01:48:12;;;;;;;32.83;20.37;;;6.10;97.40;;;6.04;69.40;95273.75;4984442;28;20451;-56
2022/01/03 01:50:41;;;;;;;46.97;20.87;;;6.10;97.30;;;6.01;69.75;95279.19;4987702;28;20482;-60
2022/01/03 01:53:08;;;;;;;41.40;22.03;;;6.10;97.20;;;5.98;69.97;95275.91;4984173;28;21002;-56
2022/01/03 01:55:37;;;;;;;39.20;22.67;;;6.10;97.40;;;5.93;69.51;95269.22;4986602;28;20470;-56
2022/01/03 01:58:07;;;;;;;38.27;23.73;;;6.10;97.20;;;5.86;69.19;95262.72;4989180;28;20470;-55
2022/01/03 02:00:34;;;;;;;42.80;23.07;;;6.00;97.00;;;5.86;69.60;95262.72;4988134;28;21013;-59
2022/01/03 02:03:14;;;;;;;42.13;25.80;;;6.00;96.90;;;5.82;68.95;95256.00;4988485;28;20544;-57
2022/01/03 02:05:43;;;;;;;48.33;26.83;;;5.90;96.70;;;5.75;68.81;95250.38;4986957;28;20486;-59
2022/01/03 02:08:14;;;;;;;45.87;24.57;;;5.90;96.40;;;5.65;68.67;95238.84;4988612;28;20458;-55
2022/01/03 02:10:44;;;;;;;40.13;24.67;;;5.80;96.30;;;5.55;69.06;95228.19;4985711;28;20474;-56
2022/01/03 02:13:17;;;;;;;43.77;23.60;;;5.70;96.40;;;5.47;68.77;95230.47;4991291;28;20537;-60
2022/01/03 02:15:49;;;;;;;43.37;23.43;;;5.60;96.50;;;5.41;69.28;95219.56;4992565;28;20494;-56
2022/01/03 02:18:16;;;;;;;47.70;25.00;;;5.50;96.80;;;5.33;70.07;95227.91;4993313;28;20447;-57
2022/01/03 02:20:45;;;;;;;42.97;24.30;;;5.50;97.00;;;5.29;70.02;95227.28;4992985;28;20537;-60
2022/01/03 02:23:13;;;;;;;43.60;25.67;;;5.40;97.30;;;5.28;70.37;95220.38;4988494;28;20982;-56
2022/01/03 02:25:40;;;;;;;43.03;23.40;;;5.40;97.80;;;5.30;70.33;95212.44;4989543;28;20537;-59
2022/01/03 02:28:07;;;;;;;41.00;24.30;;;5.40;97.50;;;5.31;69.90;95208.91;4988572;28;20457;-57
2022/01/03 02:30:35;;;;;;;41.70;24.23;;;5.40;97.50;;;5.34;69.92;95214.75;4992149;28;20466;-57
2022/01/03 02:33:02;;;;;;;40.97;23.93;;;5.50;97.60;;;5.35;70.04;95221.66;4991793;28;20451;-60
2022/01/03 02:35:29;;;;;;;38.03;24.23;;;5.40;97.40;;;5.36;69.94;95223.34;4989369;28;20822;-56
2022/01/03 02:37:58;;;;;;;42.50;25.60;;;5.50;97.60;;;5.34;70.03;95213.94;4990942;28;20505;-60
2022/01/03 02:40:25;;;;;;;46.20;25.50;;;5.50;97.40;;;5.38;69.74;95218.84;4993802;28;20827;-60
2022/01/03 02:42:53;;;;;;;47.93;25.20;;;5.50;97.40;;;5.37;69.89;95209.34;4990069;28;20838;-56
2022/01/03 02:45:21;;;;;;;46.00;24.90;;;5.50;97.40;;;5.37;69.83;95213.72;4989028;28;20474;-60
2022/01/03 02:47:50;;;;;;;48.10;25.63;;;5.50;97.30;;;5.38;69.74;95205.81;4990222;28;20454;-59
2022/01/03 02:50:18;;;;;;;49.73;26.03;;;5.50;97.40;;;5.39;69.72;95212.72;4991212;28;20470;-60
2022/01/03 02:52:45;;;;;;;47.73;27.47;;;5.50;97.40;;;5.42;69.66;95219.47;4994983;28;20450;-61
2022/01/03 02:55:14;;;;;;;52.93;26.67;;;5.50;97.40;;;5.45;69.79;95215.84;4993126;28;20482;-58
2022/01/03 02:57:46;;;;;;;43.30;24.10;;;5.50;97.40;;;5.44;70.09;95214.16;4992259;28;20982;-58
2022/01/03 03:00:15;;;;;;;38.93;22.73;;;5.50;97.30;;;5.41;70.00;95204.78;4992991;28;20479;-58
2022/01/03 03:02:42;;;;;;;46.90;24.20;;;5.50;97.60;;;5.37;70.76;95198.91;4989735;28;20458;-57
2022/01/03 03:05:10;;;;;;;42.97;25.50;;;5.50;97.90;;;5.37;70.47;95193.69;4989195;28;20486;-57
2022/01/03 03:07:38;;;;;;;40.00;23.53;;;5.50;98.00;;;5.37;70.45;95187.66;4990725;28;20977;-57
2022/01/03 03:10:06;;;;;;;44.83;23.40;;;5.50;98.20;;;5.41;70.53;95204.78;4991794;28;20968;-56
2022/01/03 03:12:35;;;;;;;42.43;24.03;;;5.50;98.10;;;5.45;70.95;95194.97;4992102;28;20470;-59
2022/01/03 03:15:03;;;;;;;38.60;23.10;;;5.50;98.30;;;5.48;70.49;95190.38;4988873;28;20478;-60
2022/01/03 03:17:32;;;;;;;53.53;27.10;;;5.60;98.10;;;5.50;70.74;95200.72;4990863;28;21661;-55
2022/01/03 03:20:03;;;;;;;42.37;24.93;;;5.60;98.30;;;5.54;70.74;95199.59;4989998;28;20481;-56
2022/01/03 03:22:31;;;;;;;39.33;23.57;;;5.60;98.30;;;5.57;70.24;95200.22;4987866;28;20478;-55
2022/01/03 03:25:01;;;;;;;41.70;22.73;;;5.70;98.00;;;5.61;70.47;95206.09;4991430;28;20477;-56
2022/01/03 03:27:29;;;;;;;37.23;22.40;;;5.70;97.90;;;5.63;70.32;95203.38;4990308;28;20513;-56
2022/01/03 03:29:58;;;;;;;36.33;21.73;;;5.70;98.10;;;5.65;70.34;95201.50;4993290;28;20486;-57
2022/01/03 03:32:26;;;;;;;33.70;21.97;;;5.70;98.00;;;5.66;70.98;95193.56;4989851;28;20889;-57
2022/01/03 03:34:53;;;;;;;38.17;21.90;;;5.80;98.40;;;5.69;70.67;95197.75;4991150;28;20834;-56
2022/01/03 03:37:20;;;;;;;34.03;20.90;;;5.80;98.40;;;5.69;70.92;95190.75;4990567;28;20464;-55
2022/01/03 03:39:47;;;;;;;36.33;22.23;;;5.80;98.40;;;5.69;70.93;95188.13;4987297;28;20493;-61
2022/01/03 03:42:15;;;;;;;31.50;20.37;;;5.80;98.20;;;5.70;70.51;95192.44;4986990;28;20464;-60
2022/01/03 03:44:42;;;;;;;33.63;21.37;;;5.80;98.30;;;5.73;70.95;95194.84;4989476;28;20604;-60
2022/01/03 03:47:11;;;;;;;37.17;20.50;;;5.80;98.40;;;5.77;70.55;95181.59;4988874;28;20486;-59
2022/01/03 03:49:38;;;;;;;38.97;20.57;;;5.80;98.40;;;5.80;70.62;95192.63;4986508;28;20448;-56
2022/01/03 03:52:07;;;;;;;32.60;19.97;;;5.90;98.30;;;5.84;70.65;95181.06;4986024;28;20447;-60
2022/01/03 03:54:34;;;;;;;38.67;20.93;;;5.90;98.40;;;5.87;70.20;95180.88;4990524;28;20580;-60
2022/01/03 03:57:02;;;;;;;38.57;22.80;;;5.90;98.00;;;5.88;70.54;95187.72;4991690;28;20454;-60
2022/01/03 03:59:29;;;;;;;37.90;20.60;;;6.00;98.00;;;5.89;70.02;95193.81;4990072;28;20468;-56
2022/01/03 04:01:57;;;;;;;32.13;20.30;;;5.90;97.70;;;5.89;70.04;95199.03;4990818;28;20491;-56
2022/01/03 04:04:26;;;;;;;39.60;21.20;;;6.00;97.70;;;5.89;69.81;95183.38;4990622;28;20457;-56
2022/01/03 04:06:53;;;;;;;40.07;22.10;;;6.00;97.70;;;5.85;69.73;95187.13;4989974;28;20486;-59
2022/01/03 04:09:22;;;;;;;36.20;22.10;;;6.00;97.50;;;5.78;69.74;95186.69;4990645;28;20514;-59
2022/01/03 04:11:50;;;;;;;48.87;26.47;;;5.90;97.40;;;5.73;69.78;95189.63;4990714;28;20467;-57
2022/01/03 04:14:19;;;;;;;41.80;25.03;;;5.90;97.40;;;5.71;69.84;95191.47;4991429;28;20447;-58
2022/01/03 04:16:47;;;;;;;47.63;25.83;;;5.80;97.30;;;5.68;69.44;95186.47;4989507;28;20995;-57
2022/01/03 04:19:14;;;;;;;51.70;25.20;;;5.80;97.30;;;5.66;69.75;95183.13;4990949;28;20462;-60
2022/01/03 04:21:43;;;;;;;46.97;24.60;;;5.80;97.30;;;5.64;69.60;95177.19;4990659;28;20478;-57
2022/01/03 04:24:12;;;;;;;34.87;22.27;;;5.80;97.30;;;5.63;69.71;95182.50;4987091;28;20978;-60
2022/01/03 04:26:40;;;;;;;42.47;25.03;;;5.80;97.40;;;5.60;69.51;95183.53;4985238;28;20494;-60
2022/01/03 04:29:08;;;;;;;46.03;26.13;;;5.70;97.30;;;5.57;69.89;95184.56;4987796;28;20455;-61
2022/01/03 04:31:35;;;;;;;39.73;24.87;;;5.70;97.50;;;5.54;69.70;95178.72;4989581;28;20515;-60
2022/01/03 04:34:02;;;;;;;43.47;24.60;;;5.70;97.60;;;5.53;70.22;95177.03;4989117;28;20458;-59
2022/01/03 04:36:30;;;;;;;45.77;24.67;;;5.60;97.60;;;5.54;70.41;95183.94;4989175;28;20483;-57
2022/01/03 04:38:58;;;;;;;40.80;20.80;;;5.60;97.80;;;5.53;70.15;95171.81;4988164;28;20483;-58
2022/01/03 04:41:25;;;;;;;37.33;22.10;;;5.60;97.80;;;5.53;70.30;95177.03;4989887;28;20478;-56
2022/01/03 04:43:53;;;;;;;38.10;23.90;;;5.60;97.70;;;5.55;69.87;95177.78;4989515;28;20548;-56
2022/01/03 04:46:20;;;;;;;42.53;24.73;;;5.60;97.80;;;5.55;70.42;95190.84;4988453;28;20505;-56
2022/01/03 04:48:47;;;;;;;53.20;24.50;;;5.70;97.80;;;5.56;70.32;95203.78;4987759;28;20466;-61
2022/01/03 04:51:15;;;;;;;41.87;24.20;;;5.70;97.80;;;5.57;69.91;95194.16;4991192;28;20465;-57
2022/01/03 04:53:42;;;;;;;51.87;29.50;;;5.70;97.70;;;5.55;69.87;95209.09;4991277;28;20497;-57
2022/01/03 04:56:13;;;;;;;62.33;34.00;;;5.70;97.40;;;5.51;69.64;95205.84;4989437;28;20528;-57
2022/01/03 04:58:41;;;;;;;61.87;33.47;;;5.60;97.20;;;5.49;69.58;95212.09;4988329;28;20509;-56
2022/01/03 05:01:08;;;;;;;74.87;40.13;;;5.60;97.30;;;5.47;69.63;95211.34;4987982;28;21018;-57
2022/01/03 05:03:35;;;;;;;81.13;42.17;;;5.60;97.10;;;5.43;69.21;95208.13;4990085;28;20463;-60
2022/01/03 05:06:03;;;;;;;58.50;32.83;;;5.60;97.00;;;5.39;69.50;95211.84;4985726;28;20541;-57
2022/01/03 05:08:30;;;;;;;65.57;31.47;;;5.50;97.40;;;5.37;69.58;95198.91;4989124;28;20459;-59
2022/01/03 05:11:00;;;;;;;54.50;29.17;;;5.50;97.10;;;5.32;69.78;95193.16;4989631;28;20482;-60
2022/01/03 05:13:29;;;;;;;50.47;27.67;;;5.50;97.20;;;5.30;69.63;95194.19;4990528;28;20455;-56
2022/01/03 05:15:57;;;;;;;50.27;27.83;;;5.40;97.30;;;5.29;69.70;95195.97;4988043;28;20504;-60
2022/01/03 05:18:24;;;;;;;61.20;28.57;;;5.40;97.20;;;5.28;69.37;95196.91;4986226;28;20983;-56
2022/01/03 05:20:51;;;;;;;46.53;27.07;;;5.40;97.20;;;5.26;69.58;95195.34;4987202;28;21050;-59
2022/01/03 05:23:18;;;;;;;53.50;31.20;;;5.40;97.20;;;5.23;69.54;95196.38;4993565;28;20833;-56
2022/01/03 05:25:46;;;;;;;40.70;23.07;;;5.40;97.30;;;5.23;70.20;95196.38;4987924;28;20590;-60
2022/01/03 05:28:13;;;;;;;45.33;25.37;;;5.40;97.50;;;5.22;69.93;95199.94;4990139;28;20490;-60
2022/01/03 05:30:42;;;;;;;42.10;23.37;;;5.30;97.60;;;5.19;70.36;95194.91;4989332;28;20874;-60
2022/01/03 05:33:09;;;;;;;45.80;22.10;;;5.30;97.80;;;5.17;70.47;95188.94;4988731;28;20469;-60
2022/01/03 05:35:37;;;;;;;41.60;25.50;;;5.30;97.90;;;5.12;70.94;95178.81;4989607;28;20471;-60
2022/01/03 05:38:04;;;;;;;43.60;25.80;;;5.30;98.20;;;5.12;71.06;95178.81;4987358;28;20447;-60
2022/01/03 05:40:31;;;;;;;36.07;20.70;;;5.20;98.20;;;5.15;70.84;95183.81;4987124;28;20855;-60
2022/01/03 05:42:58;;;;;;;36.10;21.60;;;5.20;98.10;;;5.18;70.66;95190.63;4987335;28;20455;-61
2022/01/03 05:45:26;;;;;;;33.23;20.43;;;5.30;98.20;;;5.21;70.62;95193.88;4984825;28;20479;-61
2022/01/03 05:47:55;;;;;;;35.73;23.20;;;5.30;98.20;;;5.25;71.16;95194.53;4986689;28;21064;-57
2022/01/03 05:50:22;;;;;;;40.20;22.43;;;5.30;98.20;;;5.29;70.59;95188.16;4986354;28;20479;-61
2022/01/03 05:52:50;;;;;;;34.40;20.60;;;5.40;98.20;;;5.31;70.80;95183.66;4987275;28;20517;-56
2022/01/03 05:55:19;;;;;;;34.70;21.00;;;5.40;98.20;;;5.33;70.73;95192.25;4986679;28;20518;-57
2022/01/03 05:57:46;;;;;;;35.07;19.80;;;5.40;98.20;;;5.34;70.83;95193.06;4988309;28;20995;-57
2022/01/03 06:00:16;;;;;;;32.50;20.23;;;5.50;98.30;;;5.37;70.62;95204.13;4988142;28;20482;-60
2022/01/03 06:02:44;;;;;;;34.03;20.60;;;5.50;98.30;;;5.37;70.34;95201.53;4988055;28;20517;-56
2022/01/03 06:05:20;;;;;;;35.33;19.70;;;5.50;98.00;;;5.40;70.58;95197.88;4988787;28;20471;-57
2022/01/03 06:07:47;;;;;;;36.23;20.27;;;5.50;98.10;;;5.42;70.36;95203.00;4987512;28;20568;-61
2022/01/03 06:10:17;;;;;;;41.80;21.53;;;5.50;98.00;;;5.45;70.33;95205.41;4986801;28;20471;-57
2022/01/03 06:12:45;;;;;;;34.50;19.20;;;5.60;98.00;;;5.46;70.82;95201.88;4985801;28;20524;-62
2022/01/03 06:15:15;;;;;;;30.57;19.17;;;5.50;98.30;;;5.49;70.62;95212.94;4992360;28;20848;-56
2022/01/03 06:17:43;;;;;;;30.07;19.43;;;5.60;98.30;;;5.53;70.87;95211.81;4987700;28;20459;-61
2022/01/03 06:20:12;;;;;;;37.57;19.97;;;5.60;98.30;;;5.60;70.59;95217.44;4985308;28;20505;-57
2022/01/03 06:22:41;;;;;;;39.70;18.90;;;5.70;98.30;;;5.70;71.00;95205.47;4987210;28;20955;-58
2022/01/03 06:25:09;;;;;;;34.87;20.67;;;5.80;98.50;;;5.89;69.80;95218.13;4989681;28;20979;-61
2022/01/03 06:27:37;;;;;;;37.47;24.27;;;5.90;98.50;;;6.02;69.52;95219.94;4988918;28;20494;-56
2022/01/03 06:30:05;;;;;;;45.70;28.77;;;6.10;97.80;;;6.08;68.82;95220.38;4988471;28;20486;-57
2022/01/03 06:32:32;;;;;;;57.27;28.13;;;6.10;97.10;;;6.05;68.36;95220.56;4988225;28;20454;-56
2022/01/03 06:35:00;;;;;;;59.23;32.00;;;6.20;96.70;;;5.99;67.74;95214.94;4988670;28;21024;-57
2022/01/03 06:37:29;;;;;;;60.60;33.47;;;6.10;95.90;;;5.89;67.92;95210.28;4983975;28;20844;-56
2022/01/03 06:39:56;;;;;;;67.60;35.80;;;6.10;95.90;;;5.84;67.65;95206.31;4989692;28;20489;-60
2022/01/03 06:42:23;;;;;;;76.20;42.70;;;6.00;95.60;;;5.81;67.57;95214.34;4987133;28;20459;-57
2022/01/03 06:44:51;;;;;;;91.23;42.33;;;5.90;95.70;;;5.90;67.15;95208.50;4987239;28;21038;-56
2022/01/03 06:47:18;;;;;;;85.20;44.87;;;6.00;95.70;;;6.12;67.01;95209.72;4984205;28;21153;-57
2022/01/03 06:49:45;;;;;;;77.23;44.77;;;6.20;95.40;;;6.46;66.75;95209.06;4987266;28;20548;-60
2022/01/03 06:52:13;;;;;;;85.67;45.40;;;6.60;95.50;;;7.04;64.92;95211.13;4989315;28;20458;-58
2022/01/03 06:54:41;;;;;;;87.90;42.50;;;7.10;94.20;;;7.63;64.14;95212.13;4988999;28;20451;-58
2022/01/03 06:57:09;;;;;;;80.23;42.70;;;7.70;93.90;;;7.90;63.06;95215.31;4988015;28;20454;-60
2022/01/03 06:59:36;;;;;;;86.97;43.50;;;8.10;93.10;;;8.00;62.13;95220.69;4985872;28;20455;-59
2022/01/03 07:02:04;;;;;;;79.17;44.13;;;8.20;92.40;;;8.28;61.36;95199.44;4991835;28;20458;-58
2022/01/03 07:04:31;;;;;;;82.47;44.20;;;8.50;91.90;;;8.58;60.77;95201.50;4991297;28;20873;-58
2022/01/03 07:06:59;;;;;;;81.10;45.47;;;8.80;90.90;;;8.95;60.08;95198.59;4990968;28;20885;-61
2022/01/03 07:09:26;;;;;;;92.80;44.77;;;9.20;91.10;;;9.44;60.29;95199.91;4989296;28;20845;-61
2022/01/03 07:11:55;;;;;;;75.63;42.67;;;9.60;91.00;;;10.14;58.76;95202.09;4991548;28;20455;-56
2022/01/03 07:19:54;;;;;;;54.03;33.67;;;11.70;84.60;;;12.07;54.74;95190.56;4988924;28;20568;-59
2022/01/03 07:22:21;;;;;;;65.00;37.83;;;12.20;81.90;;;12.41;54.26;95184.78;4986745;28;20455;-61
2022/01/03 07:24:48;;;;;;;44.37;25.87;;;12.60;80.50;;;12.57;53.09;95179.75;4989584;28;20963;-58
2022/01/03 07:27:17;;;;;;;50.13;29.33;;;12.90;78.40;;;12.81;52.92;95176.63;4990755;28;20489;-62
2022/01/03 07:29:46;;;;;;;45.70;28.40;;;13.20;77.50;;;13.20;52.88;95175.56;4990295;28;20478;-62
2022/01/03 07:32:13;;;;;;;50.37;29.37;;;13.60;77.20;;;13.69;52.56;95177.91;4991633;28;20485;-60
2022/01/03 07:34:41;;;;;;;50.47;27.80;;;14.10;76.30;;;14.20;51.45;95183.44;4989693;28;21083;-59
2022/01/03 07:37:09;;;;;;;37.07;24.90;;;14.60;75.10;;;14.77;51.43;95181.16;4989165;28;20533;-58
2022/01/03 07:39:36;;;;;;;38.07;23.97;;;15.20;75.60;;;14.92;50.42;95180.56;4987179;28;20566;-57
2022/01/03 07:42:04;;;;;;;41.07;23.83;;;15.40;72.70;;;14.84;49.47;95186.66;4989006;28;20459;-61
2022/01/03 07:44:33;;;;;;;36.97;21.90;;;15.40;69.30;;;15.05;50.09;95184.44;4986075;28;20462;-61
2022/01/03 07:47:00;;;;;;;39.80;21.90;;;15.50;70.80;;;15.26;49.44;95188.50;4985582;28;20468;-58
2022/01/03 07:49:27;;;;;;;33.27;21.80;;;15.60;69.10;;;15.28;48.83;95178.56;4990895;28;20454;-59
2022/01/03 07:51:56;;;;;;;33.17;19.20;;;15.60;68.60;;;15.37;48.85;95176.78;4988327;28;20546;-60
2022/01/03 07:54:23;;;;;;;30.60;20.37;;;15.60;68.60;;;15.68;48.92;95179.63;4988953;28;20459;-58
2022/01/03 07:56:51;;;;;;;35.63;20.60;;;15.80;68.80;;;16.17;48.47;95178.03;4989120;28;20916;-59
2022/01/03 07:59:18;;;;;;;39.10;22.93;;;16.20;68.70;;;16.67;47.57;95169.81;4989975;28;20478;-58
2022/01/03 08:01:47;;;;;;;35.33;19.10;;;16.60;67.80;;;17.16;47.03;95173.34;4987675;28;20605;-59
2022/01/03 08:04:14;;;;;;;33.33;23.40;;;17.00;67.00;;;17.56;46.19;95171.47;4994169;28;20850;-62
2022/01/03 08:06:41;;;;;;;62.10;31.10;;;17.40;65.90;;;18.00;44.82;95172.69;4989352;28;20474;-57
2022/01/03 08:09:09;;;;;;;49.17;30.67;;;17.70;62.90;;;18.41;44.74;95177.69;4992542;28;20486;-61
2022/01/03 08:11:36;;;;;;;38.03;23.83;;;18.20;64.20;;;18.76;42.19;95175.31;4987454;28;20604;-61
2022/01/03 08:14:03;;;;;;;35.67;21.93;;;18.50;59.00;;;18.99;43.21;95184.09;4989614;28;21112;-61
2022/01/03 08:16:31;;;;;;;39.40;24.60;;;18.80;58.40;;;19.22;43.41;95172.47;4988673;28;20490;-60
2022/01/03 08:18:59;;;;;;;34.70;24.00;;;18.90;59.00;;;19.47;42.52;95178.34;4986425;28;20963;-62
2022/01/03 08:21:27;;;;;;;34.70;25.00;;;19.10;57.60;;;19.65;42.07;95180.59;4988895;28;20474;-61
2022/01/03 08:23:54;;;;;;;38.63;28.20;;;19.30;57.30;;;19.82;41.47;95183.88;4988730;28;20459;-60
2022/01/03 08:26:21;;;;;;;40.07;26.20;;;19.50;56.70;;;20.04;40.84;95183.88;4990033;28;20525;-59
2022/01/03 08:28:49;;;;;;;36.90;26.53;;;19.60;55.60;;;20.17;40.85;95175.16;4990366;28;20512;-62
2022/01/03 08:31:16;;;;;;;47.77;27.23;;;19.80;54.70;;;20.26;40.21;95173.19;4987987;28;20470;-63
2022/01/03 08:33:43;;;;;;;35.77;25.00;;;19.90;54.50;;;20.36;40.66;95163.00;4989378;28;20455;-60
2022/01/03 08:36:12;;;;;;;31.27;21.83;;;20.00;54.60;;;20.48;40.65;95161.47;4988436;28;20478;-59
2022/01/03 08:38:39;;;;;;;35.37;23.60;;;20.10;54.60;;;20.81;40.33;95163.56;4986316;28;20825;-60
2022/01/03 08:41:07;;;;;;;33.80;24.27;;;20.40;54.30;;;21.11;40.11;95156.09;4986494;28;20533;-62
2022/01/03 08:43:34;;;;;;;30.40;21.73;;;20.60;54.10;;;21.20;39.86;95147.94;4985620;28;20847;-61
2022/01/03 08:46:01;;;;;;;41.00;26.30;;;20.80;53.40;;;21.01;38.62;95139.59;4985138;28;20463;-61
2022/01/03 08:48:29;;;;;;;36.77;22.27;;;20.70;51.40;;;20.58;39.83;95121.84;4986013;28;20513;-59
2022/01/03 08:50:56;;;;;;;35.03;23.10;;;20.50;52.30;;;20.12;40.19;95132.19;4986888;28;21002;-62
2022/01/03 08:53:26;;;;;;;35.90;23.17;;;20.10;52.20;;;19.74;41.04;95129.78;4988664;28;21054;-64
2022/01/03 08:55:54;;;;;;;32.70;21.03;;;19.80;53.00;;;19.45;40.11;95136.84;4987929;28;21027;-64
2022/01/03 08:58:21;;;;;;;33.90;25.00;;;19.40;52.30;;;19.15;40.70;95126.25;4987886;28;20455;-64
2022/01/03 09:00:48;;;;;;;35.57;23.90;;;19.10;52.90;;;19.06;41.61;95117.53;4989279;28;20483;-60
2022/01/03 09:03:16;;;;;;;26.90;21.53;;;18.90;53.50;;;19.16;39.73;95118.06;4988659;28;20447;-60
2022/01/03 09:05:43;;;;;;;33.50;21.50;;;19.00;51.30;;;19.30;40.48;95121.72;4984290;28;20853;-60
2022/01/03 09:08:11;;;;;;;25.37;18.80;;;19.00;53.50;;;19.48;40.24;95123.13;4987981;28;20490;-64
2022/01/03 09:10:40;;;;;;;31.10;20.33;;;19.20;53.40;;;19.75;40.48;95116.25;4985773;28;20485;-64
2022/01/03 09:13:07;;;;;;;29.30;18.20;;;19.30;53.20;;;19.85;39.64;95119.44;4985846;28;20545;-64
2022/01/03 09:15:36;;;;;;;32.03;19.00;;;19.40;52.30;;;19.74;38.42;95113.75;4987342;28;20489;-59
2022/01/03 09:18:03;;;;;;;26.70;18.50;;;19.40;50.30;;;19.53;38.90;95110.91;4986628;28;20451;-60
2022/01/03 09:20:31;;;;;;;28.10;18.70;;;19.40;51.00;;;19.59;38.46;95103.13;4985883;28;20487;-60
2022/01/03 09:23:07;;;;;;;30.80;22.03;;;19.30;49.50;;;19.87;38.31;95108.56;4985891;28;20459;-64
2022/01/03 09:31:05;;;;;;;33.77;23.17;;;19.80;51.10;;;20.26;39.20;95085.84;4988732;28;20474;-59
2022/01/03 09:33:33;;;;;;;34.70;23.13;;;19.80;50.90;;;20.09;38.00;95085.31;4984736;28;21017;-64
2022/01/03 09:36:00;;;;;;;30.53;21.30;;;19.80;49.90;;;19.96;39.35;95072.69;4985249;28;20471;-58
2022/01/03 09:38:27;;;;;;;45.67;23.80;;;19.70;51.10;;;19.81;39.49;95078.09;4982709;28;20447;-59
2022/01/03 09:40:55;;;;;;;44.63;25.10;;;19.50;51.30;;;19.59;38.08;95057.78;4987486;28;20898;-64
2022/01/03 09:43:23;;;;;;;40.33;26.60;;;19.40;49.60;;;19.28;39.53;95051.72;4984656;28;21004;-65
2022/01/03 09:45:51;;;;;;;40.10;23.33;;;19.10;51.20;;;19.03;40.29;95045.09;4989562;28;20474;-60
2022/01/03 09:48:18;;;;;;;30.37;21.77;;;18.90;51.90;;;18.89;39.90;95047.59;4989462;28;20498;-60
2022/01/03 09:50:46;;;;;;;23.50;14.73;;;18.70;51.10;;;18.93;39.35;95053.38;4985809;28;20467;-63
2022/01/03 09:53:13;;;;;;;21.73;15.23;;;18.70;50.80;;;19.03;40.71;95053.09;4987283;28;20477;-63
2022/01/03 09:55:41;;;;;;;18.30;13.13;;;18.70;51.90;;;18.87;40.10;95041.66;4984933;28;20512;-58
2022/01/03 09:58:10;;;;;;;21.40;13.50;;;18.50;51.80;;;18.61;41.25;95050.91;4988973;28;20454;-64
2022/01/03 10:00:38;;;;;;;19.00;13.17;;;18.30;52.40;;;18.34;41.52;95044.44;4983781;28;20802;-58
2022/01/03 10:03:06;;;;;;;18.63;11.43;;;18.10;53.00;;;18.16;41.54;95042.13;4985301;28;20864;-64
2022/01/03 10:05:33;;;;;;;18.40;12.80;;;18.00;53.30;;;18.12;42.12;95046.13;4988254;28;20466;-59
2022/01/03 10:08:00;;;;;;;18.40;12.10;;;17.90;53.70;;;18.10;41.72;95029.53;4987013;28;20500;-65
2022/01/03 10:10:28;;;;;;;19.93;14.10;;;17.90;53.70;;;18.00;41.74;95026.31;4987138;28;20506;-65
2022/01/03 10:12:55;;;;;;;16.43;12.43;;;17.80;53.10;;;17.86;41.90;95020.75;4988475;28;20925;-63
2022/01/03 10:15:23;;;;;;;22.43;13.57;;;17.70;53.80;;;17.74;41.99;95017.72;4985392;28;20478;-58
2022/01/03 10:17:51;;;;;;;17.40;13.83;;;17.60;54.00;;;17.68;42.65;95012.28;4989630;28;20474;-64
2022/01/03 10:20:19;;;;;;;20.40;14.20;;;17.50;54.30;;;17.68;42.34;95004.31;4985621;28;20868;-64
2022/01/03 10:22:46;;;;;;;21.30;13.57;;;17.50;54.30;;;17.79;42.83;95008.38;4990186;28;20548;-63
2022/01/03 10:25:21;;;;;;;24.17;15.30;;;17.60;54.80;;;18.03;42.30;95001.97;4986512;28;20765;-64
2022/01/03 10:27:51;;;;;;;23.23;16.50;;;17.80;54.60;;;18.39;41.12;94988.78;4985773;28;20454;-62
2022/01/03 10:30:34;;;;;;;32.10;17.30;;;18.00;53.70;;;18.79;41.21;94988.41;4982579;28;20475;-59
2022/01/03 10:33:03;;;;;;;27.73;18.00;;;18.40;54.10;;;19.10;39.49;94974.00;4985857;28;20477;-63